Time;durP1;ratioP1;P1;durP2;ratioP2;P2;SDS_P1;SDS_P2;PMS_P1;PMS_P2;Temp;Humidity;BMP_temperature;BMP_pressure;BME280_temperature;BME280_humidity;BME280_pressure;Samples;Min_cycle;Max_cycle;Signal;HPM_P1;HPM_P2
2022/12/20 00:00:11;;;;;;;3.72;2.05;;;;;;;;;;5067877;28;20024;-83
2022/12/20 00:02:37;;;;;;;3.47;2.13;;;;;;;;;;5061866;28;20392;-84
2022/12/20 00:05:02;;;;;;;4.30;2.00;;;;;;;;;;5064004;28;20028;-82
2022/12/20 00:07:28;;;;;;;4.15;2.15;;;;;;;;;;5070386;28;20434;-83
2022/12/20 00:09:53;;;;;;;3.85;2.17;;;;;;;;;;5061374;28;20443;-83
2022/12/20 00:12:18;;;;;;;4.22;2.08;;;;;;;;;;5068785;28;20020;-83
2022/12/20 00:14:44;;;;;;;7.20;2.47;;;;;;;;;;5068645;28;20075;-83
2022/12/20 00:17:09;;;;;;;4.57;2.10;;;;;;;;;;5064641;28;20031;-82
2022/12/20 00:19:34;;;;;;;4.18;2.10;;;;;;;;;;5060147;28;20499;-80
2022/12/20 00:22:03;;;;;;;4.63;2.45;;;;;;;;;;5064133;28;20059;-82
2022/12/20 00:24:28;;;;;;;3.55;2.10;;;;;;;;;;5062951;28;20499;-81
2022/12/20 00:26:53;;;;;;;5.95;2.20;;;;;;;;;;5063836;28;20041;-82
2022/12/20 00:29:19;;;;;;;3.63;2.00;;;;;;;;;;5064978;28;20357;-79
2022/12/20 00:31:44;;;;;;;3.95;2.17;;;;;;;;;;5064274;28;20123;-82
2022/12/20 00:34:09;;;;;;;5.18;2.38;;;;;;;;;;5063929;28;20024;-82
2022/12/20 00:36:35;;;;;;;4.63;2.30;;;;;;;;;;5061569;28;20454;-82
2022/12/20 00:39:01;;;;;;;5.35;2.05;;;;;;;;;;5062782;28;20031;-81
2022/12/20 00:41:29;;;;;;;5.28;2.17;;;;;;;;;;5067859;28;20040;-83
2022/12/20 00:43:55;;;;;;;4.43;1.88;;;;;;;;;;5059500;28;20051;-82
2022/12/20 00:46:22;;;;;;;5.15;2.30;;;;;;;;;;5062058;28;20021;-81
2022/12/20 00:48:48;;;;;;;4.25;2.30;;;;;;;;;;5060418;28;20107;-83
2022/12/20 00:51:16;;;;;;;4.88;2.10;;;;;;;;;;5058438;28;20590;-83
2022/12/20 00:53:42;;;;;;;5.07;2.28;;;;;;;;;;5077541;28;20057;-83
2022/12/20 00:56:08;;;;;;;5.50;2.22;;;;;;;;;;5065233;28;20066;-84
2022/12/20 00:58:36;;;;;;;4.15;1.95;;;;;;;;;;5063234;28;20036;-83
2022/12/20 01:01:03;;;;;;;5.88;2.20;;;;;;;;;;5067114;28;20035;-80
2022/12/20 01:03:29;;;;;;;4.68;2.25;;;;;;;;;;5064919;28;20028;-82
2022/12/20 01:06:00;;;;;;;5.97;2.20;;;;;;;;;;5068184;28;20371;-82
2022/12/20 01:08:28;;;;;;;4.18;2.10;;;;;;;;;;5062322;28;20024;-81
2022/12/20 01:11:11;;;;;;;4.32;2.13;;;;;;;;;;5064214;28;20031;-83
2022/12/20 01:13:39;;;;;;;;;;;;;;;;;;5059128;28;20111;-83
2022/12/20 01:16:12;;;;;;;4.88;2.30;;;;;;;;;;5066163;28;19947;-83
2022/12/20 01:18:37;;;;;;;6.25;2.10;;;;;;;;;;5065257;28;20476;-82
2022/12/20 01:21:12;;;;;;;3.72;1.73;;;;;;;;;;5069110;28;20032;-81
2022/12/20 01:23:39;;;;;;;4.07;2.15;;;;;;;;;;5068222;28;20353;-81
2022/12/20 01:26:09;;;;;;;4.80;2.35;;;;;;;;;;5062813;28;20040;-81
2022/12/20 01:28:36;;;;;;;5.80;2.35;;;;;;;;;;5058387;28;20035;-81
2022/12/20 01:31:05;;;;;;;4.70;2.40;;;;;;;;;;5057953;28;20131;-79
2022/12/20 01:33:31;;;;;;;5.00;2.25;;;;;;;;;;5064493;28;20093;-80
2022/12/20 01:35:57;;;;;;;5.25;2.40;;;;;;;;;;5056730;28;20028;-80
2022/12/20 01:38:23;;;;;;;5.85;2.50;;;;;;;;;;5059960;28;20590;-80
2022/12/20 01:40:48;;;;;;;4.00;2.20;;;;;;;;;;5060585;28;20048;-79
2022/12/20 01:43:14;;;;;;;6.43;2.70;;;;;;;;;;5059907;28;20024;-79
2022/12/20 01:45:39;;;;;;;4.32;2.40;;;;;;;;;;5059924;28;20373;-78
2022/12/20 01:48:06;;;;;;;5.65;2.53;;;;;;;;;;5063779;28;20028;-79
2022/12/20 01:50:33;;;;;;;5.30;2.50;;;;;;;;;;5071043;28;20403;-79
2022/12/20 01:52:59;;;;;;;4.75;2.10;;;;;;;;;;5068236;28;20052;-79
2022/12/20 01:55:27;;;;;;;4.30;2.05;;;;;;;;;;5065165;28;20448;-79
2022/12/20 01:57:52;;;;;;;4.53;2.28;;;;;;;;;;5064124;28;20036;-79
2022/12/20 02:00:19;;;;;;;4.40;2.33;;;;;;;;;;5064358;28;20082;-79
2022/12/20 02:02:46;;;;;;;4.32;2.40;;;;;;;;;;5066843;28;20468;-79
2022/12/20 02:05:13;;;;;;;5.18;2.45;;;;;;;;;;5069083;28;20083;-78
2022/12/20 02:07:40;;;;;;;5.78;2.25;;;;;;;;;;5069337;28;20032;-79
2022/12/20 02:10:08;;;;;;;4.32;2.65;;;;;;;;;;5063180;28;20432;-79
2022/12/20 02:12:42;;;;;;;5.35;2.40;;;;;;;;;;5064620;28;20021;-78
2022/12/20 02:15:08;;;;;;;5.85;2.47;;;;;;;;;;5066638;28;20063;-79
2022/12/20 02:17:58;;;;;;;5.47;2.35;;;;;;;;;;5063670;28;20698;-79
2022/12/20 02:20:29;;;;;;;4.20;2.40;;;;;;;;;;5058640;28;20035;-79
2022/12/20 02:23:03;;;;;;;4.45;2.65;;;;;;;;;;5064579;28;20058;-79
2022/12/20 02:25:47;;;;;;;4.75;2.60;;;;;;;;;;5064457;28;20041;-79
2022/12/20 02:28:15;;;;;;;4.93;2.50;;;;;;;;;;5061708;28;20068;-79
2022/12/20 02:30:44;;;;;;;5.35;2.55;;;;;;;;;;5060763;28;20054;-79
2022/12/20 02:33:13;;;;;;;4.25;2.30;;;;;;;;;;5061953;28;20035;-79
2022/12/20 02:35:40;;;;;;;4.40;2.55;;;;;;;;;;5062412;28;20388;-79
2022/12/20 02:38:34;;;;;;;4.18;2.33;;;;;;;;;;5063281;28;20412;-79
2022/12/20 02:41:05;;;;;;;4.65;2.45;;;;;;;;;;5063228;28;20438;-79
2022/12/20 02:46:19;;;;;;;6.88;2.70;;;;;;;;;;5065284;28;20077;-79
2022/12/20 02:48:46;;;;;;;4.95;2.50;;;;;;;;;;5060214;28;20037;-79
2022/12/20 02:51:14;;;;;;;8.05;2.38;;;;;;;;;;5058952;28;20021;-79
2022/12/20 02:53:41;;;;;;;4.20;2.60;;;;;;;;;;5064925;28;20480;-79
2022/12/20 02:56:42;;;;;;;6.72;2.58;;;;;;;;;;5066959;28;20040;-79
2022/12/20 02:59:15;;;;;;;4.70;2.50;;;;;;;;;;5064049;28;20499;-79
2022/12/20 03:01:49;;;;;;;5.55;2.53;;;;;;;;;;5061201;28;20119;-79
2022/12/20 03:04:17;;;;;;;4.65;2.50;;;;;;;;;;5060110;28;20028;-80
2022/12/20 03:07:00;;;;;;;3.67;2.25;;;;;;;;;;5063994;28;20074;-79
2022/12/20 03:09:26;;;;;;;;;;;;;;;;;;5062275;28;20495;-80
2022/12/20 03:11:52;;;;;;;3.80;2.25;;;;;;;;;;5061670;28;19912;-79
2022/12/20 03:14:18;;;;;;;5.70;2.17;;;;;;;;;;5061856;28;20029;-80
2022/12/20 03:16:43;;;;;;;4.38;2.00;;;;;;;;;;5064435;28;20029;-79
2022/12/20 03:19:08;;;;;;;5.32;2.40;;;;;;;;;;5063937;28;20020;-79
2022/12/20 03:21:34;;;;;;;4.70;2.10;;;;;;;;;;5064267;28;20120;-79
2022/12/20 03:23:59;;;;;;;3.70;2.03;;;;;;;;;;5057851;28;20031;-79
2022/12/20 03:26:24;;;;;;;4.65;2.10;;;;;;;;;;5068545;28;20033;-80
2022/12/20 03:28:50;;;;;;;3.47;2.08;;;;;;;;;;5063446;28;20037;-80
2022/12/20 03:31:15;;;;;;;5.05;2.45;;;;;;;;;;5064278;28;20396;-80
2022/12/20 03:33:40;;;;;;;3.42;1.90;;;;;;;;;;5065169;28;20063;-80
2022/12/20 03:36:06;;;;;;;4.80;2.47;;;;;;;;;;5065141;28;20226;-80
2022/12/20 03:38:31;;;;;;;3.17;1.98;;;;;;;;;;5062700;28;20788;-79
2022/12/20 03:40:57;;;;;;;4.78;2.00;;;;;;;;;;5067377;28;20033;-80
2022/12/20 03:43:22;;;;;;;5.55;2.10;;;;;;;;;;5067972;28;20035;-80
2022/12/20 03:45:47;;;;;;;4.43;1.98;;;;;;;;;;5067032;28;20537;-80
2022/12/20 03:48:13;;;;;;;4.68;1.73;;;;;;;;;;5064495;28;20032;-80
2022/12/20 03:50:38;;;;;;;5.10;2.13;;;;;;;;;;5059917;28;20035;-80
2022/12/20 03:53:04;;;;;;;3.03;2.03;;;;;;;;;;5065095;28;20157;-80
2022/12/20 03:55:29;;;;;;;3.63;1.98;;;;;;;;;;5068193;28;20020;-80
2022/12/20 03:57:54;;;;;;;3.38;2.03;;;;;;;;;;5062395;28;20031;-79
2022/12/20 04:00:20;;;;;;;4.15;1.95;;;;;;;;;;5064946;28;20032;-80
2022/12/20 04:02:45;;;;;;;4.43;1.95;;;;;;;;;;5071059;28;20312;-80
2022/12/20 04:05:11;;;;;;;4.55;2.20;;;;;;;;;;5066388;28;20141;-80
2022/12/20 04:07:36;;;;;;;5.00;2.13;;;;;;;;;;5063313;28;20032;-80
2022/12/20 04:10:02;;;;;;;4.03;2.00;;;;;;;;;;5071002;28;20028;-78
2022/12/20 04:12:28;;;;;;;4.43;1.83;;;;;;;;;;5068146;28;20119;-81
2022/12/20 04:14:53;;;;;;;4.05;2.15;;;;;;;;;;5070408;28;20017;-80
2022/12/20 04:17:18;;;;;;;3.60;1.75;;;;;;;;;;5069443;28;20032;-81
2022/12/20 04:19:44;;;;;;;4.03;2.15;;;;;;;;;;5065199;28;20033;-80
2022/12/20 04:22:09;;;;;;;3.90;2.10;;;;;;;;;;5067351;28;20118;-79
2022/12/20 04:24:34;;;;;;;5.80;2.15;;;;;;;;;;5067135;28;20389;-80
2022/12/20 04:27:00;;;;;;;4.25;2.10;;;;;;;;;;5066705;28;20025;-80
2022/12/20 04:29:26;;;;;;;3.97;2.10;;;;;;;;;;5065319;28;20103;-79
2022/12/20 04:31:51;;;;;;;3.92;2.00;;;;;;;;;;5068134;28;20028;-81
2022/12/20 04:34:17;;;;;;;3.97;2.13;;;;;;;;;;5065631;28;20030;-81
2022/12/20 04:36:42;;;;;;;4.00;2.10;;;;;;;;;;5067318;28;20067;-80
2022/12/20 04:39:08;;;;;;;3.60;2.08;;;;;;;;;;5062188;28;20024;-81
2022/12/20 04:41:33;;;;;;;3.78;2.10;;;;;;;;;;5067357;28;20124;-81
2022/12/20 04:43:59;;;;;;;3.90;2.20;;;;;;;;;;5065719;28;20032;-81
2022/12/20 04:46:25;;;;;;;4.18;2.00;;;;;;;;;;5063991;28;20453;-81
2022/12/20 04:48:51;;;;;;;4.03;1.92;;;;;;;;;;5066344;28;20020;-80
2022/12/20 04:51:16;;;;;;;4.90;2.05;;;;;;;;;;5064471;28;21578;-81
2022/12/20 04:53:48;;;;;;;4.22;2.08;;;;;;;;;;5068846;28;20384;-81
2022/12/20 04:56:21;;;;;;;5.85;2.03;;;;;;;;;;5065123;28;21543;-81
2022/12/20 04:58:49;;;;;;;5.10;2.20;;;;;;;;;;5061018;28;20039;-80
2022/12/20 05:01:15;;;;;;;4.60;2.40;;;;;;;;;;5062442;28;20772;-80
2022/12/20 05:03:41;;;;;;;5.40;2.20;;;;;;;;;;5064735;28;20091;-80
2022/12/20 05:06:07;;;;;;;5.65;2.30;;;;;;;;;;5063567;28;20043;-80
2022/12/20 05:08:32;;;;;;;4.03;2.20;;;;;;;;;;5060457;28;20430;-80
2022/12/20 05:10:58;;;;;;;5.13;2.10;;;;;;;;;;5060504;28;20025;-80
2022/12/20 05:13:23;;;;;;;4.07;2.40;;;;;;;;;;5067437;28;20035;-81
2022/12/20 05:15:53;;;;;;;5.15;2.17;;;;;;;;;;5061044;28;20017;-79
2022/12/20 05:18:19;;;;;;;4.32;2.13;;;;;;;;;;5064231;28;20043;-80
2022/12/20 05:20:45;;;;;;;4.63;2.08;;;;;;;;;;5065321;28;20530;-80
2022/12/20 05:28:39;;;;;;;4.80;2.40;;;;;;;;;;5061187;28;20043;-80
2022/12/20 05:31:05;;;;;;;4.28;1.92;;;;;;;;;;5064936;28;20024;-80
2022/12/20 05:33:30;;;;;;;3.65;2.20;;;;;;;;;;5064925;28;20067;-81
2022/12/20 05:35:56;;;;;;;4.90;2.15;;;;;;;;;;5066341;28;20028;-81
2022/12/20 05:38:22;;;;;;;4.72;1.88;;;;;;;;;;5063560;28;20485;-80
2022/12/20 05:40:48;;;;;;;3.05;1.88;;;;;;;;;;5062076;28;20091;-80
2022/12/20 05:43:14;;;;;;;3.42;1.90;;;;;;;;;;5064193;28;20487;-79
2022/12/20 05:45:43;;;;;;;3.50;1.95;;;;;;;;;;5059100;28;20024;-80
2022/12/20 05:48:09;;;;;;;4.13;1.70;;;;;;;;;;5048532;28;20032;-79
2022/12/20 05:50:34;;;;;;;3.83;1.88;;;;;;;;;;5071979;28;20040;-80
2022/12/20 05:53:00;;;;;;;3.85;2.10;;;;;;;;;;5064622;28;20025;-81
2022/12/20 05:55:25;;;;;;;3.53;1.67;;;;;;;;;;5060198;28;20024;-80
2022/12/20 05:57:50;;;;;;;4.53;2.08;;;;;;;;;;5056794;28;20052;-80
2022/12/20 06:00:16;;;;;;;4.88;2.33;;;;;;;;;;5059255;28;20388;-80
2022/12/20 06:02:41;;;;;;;4.97;1.95;;;;;;;;;;5057550;28;20166;-80
2022/12/20 06:05:07;;;;;;;3.45;2.00;;;;;;;;;;5060224;28;20388;-80
2022/12/20 06:07:32;;;;;;;4.07;2.10;;;;;;;;;;5060430;28;20123;-79
2022/12/20 06:09:58;;;;;;;3.97;2.08;;;;;;;;;;5062229;28;20036;-81
2022/12/20 06:12:24;;;;;;;3.25;1.95;;;;;;;;;;5066402;28;20029;-80
2022/12/20 06:14:50;;;;;;;3.95;1.80;;;;;;;;;;5063526;28;20043;-80
2022/12/20 06:17:15;;;;;;;3.90;2.00;;;;;;;;;;5066979;28;20024;-81
2022/12/20 06:19:41;;;;;;;3.95;1.77;;;;;;;;;;5066067;28;20396;-80
2022/12/20 06:22:09;;;;;;;2.97;1.77;;;;;;;;;;5059600;28;20031;-81
2022/12/20 06:24:35;;;;;;;3.10;1.70;;;;;;;;;;5061184;28;20028;-79
2022/12/20 06:27:01;;;;;;;4.30;1.90;;;;;;;;;;5055518;28;20052;-81
2022/12/20 06:29:27;;;;;;;3.13;1.65;;;;;;;;;;5056989;28;20037;-80
2022/12/20 06:31:52;;;;;;;3.45;2.15;;;;;;;;;;5061391;28;20024;-81
2022/12/20 06:34:18;;;;;;;4.32;1.83;;;;;;;;;;5059400;28;20028;-79
2022/12/20 06:36:43;;;;;;;3.50;1.60;;;;;;;;;;5059093;28;20043;-80
2022/12/20 06:39:09;;;;;;;3.45;1.58;;;;;;;;;;5064370;28;20036;-81
2022/12/20 06:41:35;;;;;;;3.22;1.98;;;;;;;;;;5059132;28;20572;-81
2022/12/20 06:44:01;;;;;;;3.75;1.77;;;;;;;;;;5058661;28;20024;-84
2022/12/20 06:46:26;;;;;;;3.53;1.40;;;;;;;;;;5064730;28;20412;-81
2022/12/20 06:48:54;;;;;;;4.35;1.75;;;;;;;;;;5064654;28;20024;-81
2022/12/20 06:51:19;;;;;;;2.50;1.35;;;;;;;;;;5066711;28;20036;-81
2022/12/20 06:53:45;;;;;;;2.70;1.45;;;;;;;;;;5064058;28;20086;-81
2022/12/20 06:56:10;;;;;;;2.35;1.45;;;;;;;;;;5063676;28;20035;-80
2022/12/20 06:58:36;;;;;;;3.78;1.60;;;;;;;;;;5064753;28;20117;-81
2022/12/20 07:01:01;;;;;;;2.58;1.30;;;;;;;;;;5070062;28;20020;-80
2022/12/20 07:03:26;;;;;;;3.00;1.50;;;;;;;;;;5069983;28;20093;-80
2022/12/20 07:05:53;;;;;;;2.90;1.60;;;;;;;;;;5069962;28;20119;-81
2022/12/20 07:08:19;;;;;;;4.30;1.60;;;;;;;;;;5065641;28;20029;-81
2022/12/20 07:10:45;;;;;;;3.17;1.40;;;;;;;;;;5081965;28;20570;-81
2022/12/20 07:13:10;;;;;;;2.90;1.60;;;;;;;;;;5073022;28;20100;-80
2022/12/20 07:15:36;;;;;;;3.45;1.65;;;;;;;;;;5066433;28;20029;-81
2022/12/20 07:18:02;;;;;;;3.17;1.42;;;;;;;;;;5081274;28;20035;-81
2022/12/20 07:20:28;;;;;;;3.30;1.50;;;;;;;;;;5069263;28;20480;-80
2022/12/20 07:22:54;;;;;;;3.58;1.58;;;;;;;;;;5069553;28;20020;-80
2022/12/20 07:25:19;;;;;;;3.67;1.67;;;;;;;;;;5065781;28;20454;-81
2022/12/20 07:27:51;;;;;;;5.43;1.60;;;;;;;;;;5063594;28;20483;-80
2022/12/20 07:30:19;;;;;;;3.77;1.50;;;;;;;;;;5072740;28;20032;-81
2022/12/20 07:32:44;;;;;;;2.80;1.50;;;;;;;;;;5066414;28;20093;-81
2022/12/20 07:35:10;;;;;;;2.22;1.25;;;;;;;;;;5071554;28;20036;-81
2022/12/20 07:37:37;;;;;;;4.82;1.60;;;;;;;;;;5067958;28;20024;-81
2022/12/20 07:40:03;;;;;;;4.32;1.50;;;;;;;;;;5069691;28;20464;-79
2022/12/20 07:42:28;;;;;;;5.28;1.90;;;;;;;;;;5072886;28;20025;-80
2022/12/20 07:44:53;;;;;;;3.95;1.73;;;;;;;;;;5068269;28;20852;-80
2022/12/20 07:47:19;;;;;;;5.93;1.70;;;;;;;;;;5068872;28;20024;-81
2022/12/20 07:49:44;;;;;;;2.50;1.40;;;;;;;;;;5067854;28;20035;-80
2022/12/20 07:52:13;;;;;;;2.47;1.50;;;;;;;;;;5070375;28;20544;-80
2022/12/20 07:54:47;;;;;;;3.03;1.40;;;;;;;;;;5068854;28;20040;-80
2022/12/20 07:57:19;;;;;;;4.70;1.60;;;;;;;;;;5069783;28;20032;-81
2022/12/20 07:59:50;;;;;;;2.17;1.17;;;;;;;;;;5067680;28;20515;-81
2022/12/20 08:02:45;;;;;;;2.22;1.40;;;;;;;;;;5073272;28;20047;-80
2022/12/20 08:05:11;;;;;;;4.40;1.55;;;;;;;;;;5063833;28;20489;-80
2022/12/20 08:07:39;;;;;;;2.47;1.30;;;;;;;;;;5063715;28;20040;-79
2022/12/20 08:10:07;;;;;;;4.45;1.30;;;;;;;;;;5068241;28;20488;-80
2022/12/20 08:12:33;;;;;;;2.58;1.40;;;;;;;;;;5066583;28;20369;-80
2022/12/20 08:14:58;;;;;;;2.63;1.35;;;;;;;;;;5068001;28;20027;-80
2022/12/20 08:17:24;;;;;;;2.75;1.35;;;;;;;;;;5064673;28;20480;-80
2022/12/20 08:19:52;;;;;;;3.35;1.60;;;;;;;;;;5066188;28;20024;-80
2022/12/20 08:22:18;;;;;;;4.15;1.63;;;;;;;;;;5069724;28;20694;-81
2022/12/20 08:24:44;;;;;;;2.33;1.33;;;;;;;;;;5067104;28;20024;-81
2022/12/20 08:27:10;;;;;;;2.97;1.40;;;;;;;;;;5066626;28;20508;-81
2022/12/20 08:29:35;;;;;;;5.30;1.40;;;;;;;;;;5068736;28;20024;-79
2022/12/20 08:32:00;;;;;;;3.50;1.45;;;;;;;;;;5070063;28;20029;-81
2022/12/20 08:34:26;;;;;;;3.33;1.50;;;;;;;;;;5063915;28;20021;-80
2022/12/20 08:36:51;;;;;;;2.28;1.60;;;;;;;;;;5066059;28;20025;-79
2022/12/20 08:39:17;;;;;;;3.47;1.50;;;;;;;;;;5065457;28;20036;-79
2022/12/20 08:41:42;;;;;;;2.47;1.50;;;;;;;;;;5071480;28;20107;-80
2022/12/20 08:44:09;;;;;;;2.55;1.80;;;;;;;;;;5059283;28;20033;-79
2022/12/20 08:46:35;;;;;;;4.57;1.77;;;;;;;;;;5065883;28;20596;-79
2022/12/20 08:49:01;;;;;;;2.90;1.55;;;;;;;;;;5063266;28;20044;-79
2022/12/20 08:51:27;;;;;;;3.17;1.50;;;;;;;;;;5071481;28;20111;-80
2022/12/20 08:53:53;;;;;;;2.35;1.50;;;;;;;;;;5072734;28;20182;-78
2022/12/20 08:56:19;;;;;;;3.92;1.52;;;;;;;;;;5069792;28;20020;-78
2022/12/20 08:58:44;;;;;;;2.72;1.33;;;;;;;;;;5071260;28;20028;-79
2022/12/20 09:01:12;;;;;;;3.72;1.70;;;;;;;;;;5066034;28;20405;-78
2022/12/20 09:03:39;;;;;;;2.88;1.60;;;;;;;;;;5069269;28;20060;-78
2022/12/20 09:06:06;;;;;;;2.72;1.50;;;;;;;;;;5070387;28;20025;-78
2022/12/20 09:08:33;;;;;;;3.35;1.52;;;;;;;;;;5067913;28;20028;-78
2022/12/20 09:11:07;;;;;;;2.30;1.50;;;;;;;;;;5071949;28;20031;-78
2022/12/20 09:13:33;;;;;;;3.10;1.73;;;;;;;;;;5070349;28;20416;-78
2022/12/20 09:16:03;;;;;;;4.07;1.75;;;;;;;;;;5068273;28;20032;-78
2022/12/20 09:18:29;;;;;;;3.95;1.60;;;;;;;;;;5071270;28;20039;-78
2022/12/20 09:20:57;;;;;;;3.55;1.55;;;;;;;;;;5070706;28;20115;-78
2022/12/20 09:23:23;;;;;;;3.22;1.60;;;;;;;;;;5067282;28;20043;-78
2022/12/20 09:25:48;;;;;;;4.22;1.63;;;;;;;;;;5065259;28;20378;-78
2022/12/20 09:28:13;;;;;;;3.55;1.60;;;;;;;;;;5064372;28;20028;-77
2022/12/20 09:30:39;;;;;;;4.95;1.60;;;;;;;;;;5067148;28;20078;-77
2022/12/20 09:33:04;;;;;;;3.50;1.70;;;;;;;;;;5065257;28;20111;-78
2022/12/20 09:35:32;;;;;;;2.70;1.60;;;;;;;;;;5066994;28;20056;-78
2022/12/20 09:37:58;;;;;;;4.63;1.90;;;;;;;;;;5065340;28;20055;-78
2022/12/20 09:40:27;;;;;;;2.75;1.50;;;;;;;;;;5059956;28;20492;-78
2022/12/20 09:42:53;;;;;;;3.25;1.50;;;;;;;;;;5063930;28;20038;-78
2022/12/20 09:45:26;;;;;;;3.17;1.50;;;;;;;;;;5062059;28;20032;-77
2022/12/20 09:47:51;;;;;;;5.38;1.70;;;;;;;;;;5065658;28;20503;-77
2022/12/20 09:50:19;;;;;;;4.57;1.73;;;;;;;;;;5069306;28;20048;-78
2022/12/20 09:53:13;;;;;;;3.90;1.50;;;;;;;;;;5070995;28;20035;-78
2022/12/20 09:55:42;;;;;;;;;;;;;;;;;;5065013;28;20078;-78
2022/12/20 09:58:22;;;;;;;3.20;1.70;;;;;;;;;;5068937;28;19957;-78
2022/12/20 10:00:49;;;;;;;4.20;1.60;;;;;;;;;;5072266;28;20439;-77
2022/12/20 10:03:41;;;;;;;4.07;1.70;;;;;;;;;;5070181;28;20086;-78
2022/12/20 10:06:30;;;;;;;4.78;1.80;;;;;;;;;;5069763;28;20032;-77
2022/12/20 10:09:01;;;;;;;3.20;1.73;;;;;;;;;;5066367;28;20441;-77
2022/12/20 10:12:02;;;;;;;3.63;2.00;;;;;;;;;;5081281;28;20034;-77
2022/12/20 10:14:36;;;;;;;3.70;1.88;;;;;;;;;;5063564;28;20040;-77
2022/12/20 10:17:14;;;;;;;3.83;2.15;;;;;;;;;;5064785;28;20017;-77
2022/12/20 10:20:02;;;;;;;4.47;2.13;;;;;;;;;;5081279;28;20484;-78
2022/12/20 10:23:08;;;;;;;3.75;1.80;;;;;;;;;;5066928;28;20395;-77
2022/12/20 10:25:34;;;;;;;3.25;1.77;;;;;;;;;;5067295;28;20074;-77
2022/12/20 10:28:03;;;;;;;4.25;2.00;;;;;;;;;;5068124;28;20048;-77
2022/12/20 10:30:32;;;;;;;3.88;2.30;;;;;;;;;;5062672;28;20062;-77
2022/12/20 10:32:58;;;;;;;4.32;2.35;;;;;;;;;;5063033;28;20028;-77
2022/12/20 10:35:39;;;;;;;7.70;2.50;;;;;;;;;;5066674;28;20402;-78
2022/12/20 10:38:14;;;;;;;4.47;2.28;;;;;;;;;;5087367;28;20044;-77
2022/12/20 10:41:01;;;;;;;4.70;2.22;;;;;;;;;;5065882;28;20384;-77
2022/12/20 10:43:35;;;;;;;4.53;2.53;;;;;;;;;;5062243;28;20024;-77
2022/12/20 10:46:04;;;;;;;5.75;2.70;;;;;;;;;;5068009;28;20388;-77
2022/12/20 10:48:32;;;;;;;5.22;2.30;;;;;;;;;;5069817;28;20021;-77
2022/12/20 10:51:02;;;;;;;4.85;2.33;;;;;;;;;;5071061;28;20017;-76
2022/12/20 10:53:29;;;;;;;5.63;2.40;;;;;;;;;;5062923;28;20134;-78
2022/12/20 10:56:12;;;;;;;5.72;2.30;;;;;;;;;;5070437;28;20480;-77
2022/12/20 10:58:38;;;;;;;4.80;2.33;;;;;;;;;;5062044;28;20028;-77
2022/12/20 11:01:16;;;;;;;5.32;2.35;;;;;;;;;;5067981;28;20166;-77
2022/12/20 11:04:17;;;;;;;4.43;2.03;;;;;;;;;;5063852;28;20027;-78
2022/12/20 11:06:44;;;;;;;4.45;2.00;;;;;;;;;;5066596;28;20032;-77
2022/12/20 11:09:32;;;;;;;4.18;2.28;;;;;;;;;;5065924;28;20024;-77
2022/12/20 11:12:11;;;;;;;3.17;1.90;;;;;;;;;;5069731;28;20507;-80
2022/12/20 11:14:37;;;;;;;6.28;2.30;;;;;;;;;;5063563;28;20086;-79
2022/12/20 11:17:22;;;;;;;4.28;1.90;;;;;;;;;;5068469;28;20020;-78
2022/12/20 11:20:09;;;;;;;3.90;2.08;;;;;;;;;;5061902;28;20392;-78
2022/12/20 11:22:48;;;;;;;4.15;1.83;;;;;;;;;;5060080;28;20358;-78
2022/12/20 11:25:36;;;;;;;3.83;2.22;;;;;;;;;;5064545;28;20050;-78
2022/12/20 11:28:35;;;;;;;3.92;2.17;;;;;;;;;;5068665;28;20502;-78
2022/12/20 11:31:20;;;;;;;5.40;2.30;;;;;;;;;;5069781;28;20071;-78
2022/12/20 11:33:58;;;;;;;4.82;2.33;;;;;;;;;;5081134;28;20033;-78
2022/12/20 11:36:41;;;;;;;5.93;2.38;;;;;;;;;;5060287;28;20024;-78
2022/12/20 11:39:33;;;;;;;5.47;2.60;;;;;;;;;;5067119;28;20074;-78
2022/12/20 11:42:27;;;;;;;4.25;2.15;;;;;;;;;;5061723;28;20040;-78
2022/12/20 11:44:59;;;;;;;3.78;2.20;;;;;;;;;;5064226;28;20033;-78
2022/12/20 11:48:02;;;;;;;3.85;2.35;;;;;;;;;;5068718;28;20024;-78
2022/12/20 11:50:44;;;;;;;4.03;2.17;;;;;;;;;;5066560;28;20105;-78
2022/12/20 11:53:26;;;;;;;3.83;2.35;;;;;;;;;;5075378;28;20512;-78
2022/12/20 11:55:55;;;;;;;5.18;2.40;;;;;;;;;;5063002;28;20021;-78
2022/12/20 11:58:45;;;;;;;6.30;2.85;;;;;;;;;;5071679;28;20029;-78
2022/12/20 12:01:14;;;;;;;3.50;2.17;;;;;;;;;;5066015;28;20025;-78
2022/12/20 12:03:47;;;;;;;5.60;2.40;;;;;;;;;;5073430;28;20024;-78
2022/12/20 12:06:25;;;;;;;5.55;2.80;;;;;;;;;;5068974;28;20602;-78
2022/12/20 12:09:11;;;;;;;6.10;2.70;;;;;;;;;;5067930;28;20028;-78
2022/12/20 12:11:48;;;;;;;5.22;2.35;;;;;;;;;;5069901;28;20182;-78
2022/12/20 12:14:24;;;;;;;4.38;2.40;;;;;;;;;;5071596;28;20047;-78
2022/12/20 12:16:54;;;;;;;5.25;2.47;;;;;;;;;;5061488;28;20029;-78
2022/12/20 12:19:22;;;;;;;4.60;2.20;;;;;;;;;;5070772;28;20028;-78
2022/12/20 12:22:04;;;;;;;4.50;2.42;;;;;;;;;;5069483;28;20170;-78
2022/12/20 12:24:41;;;;;;;4.38;2.40;;;;;;;;;;5073527;28;20547;-78
2022/12/20 12:27:22;;;;;;;6.70;2.80;;;;;;;;;;5069111;28;20043;-78
2022/12/20 12:29:47;;;;;;;5.20;2.60;;;;;;;;;;5069472;28;20029;-78
2022/12/20 12:32:24;;;;;;;5.15;2.60;;;;;;;;;;5066853;28;20484;-78
2022/12/20 12:35:12;;;;;;;4.57;2.75;;;;;;;;;;5070818;28;20016;-78
2022/12/20 12:37:56;;;;;;;4.20;2.33;;;;;;;;;;5070550;28;20021;-78
2022/12/20 12:40:40;;;;;;;5.43;2.70;;;;;;;;;;5072952;28;20031;-78
2022/12/20 12:43:34;;;;;;;;;;;;;;;;;;5064518;28;20106;-78
2022/12/20 12:46:02;;;;;;;4.50;2.80;;;;;;;;;;5069190;28;20008;-78
2022/12/20 12:48:30;;;;;;;4.75;2.70;;;;;;;;;;5063233;28;20757;-78
2022/12/20 12:50:57;;;;;;;4.57;2.70;;;;;;;;;;5065872;28;20028;-78
2022/12/20 12:53:36;;;;;;;5.22;2.75;;;;;;;;;;5068028;28;20362;-78
2022/12/20 12:56:26;;;;;;;6.55;3.03;;;;;;;;;;5069765;28;20484;-78
2022/12/20 12:59:10;;;;;;;5.80;3.28;;;;;;;;;;5068433;28;20031;-77
2022/12/20 13:01:42;;;;;;;5.32;3.20;;;;;;;;;;5064533;28;20034;-78
2022/12/20 13:04:21;;;;;;;4.38;2.95;;;;;;;;;;5064104;28;20500;-77
2022/12/20 13:06:46;;;;;;;6.55;2.80;;;;;;;;;;5065051;28;20510;-78
2022/12/20 13:09:24;;;;;;;5.65;2.60;;;;;;;;;;5072447;28;20070;-78
2022/12/20 13:11:50;;;;;;;4.68;2.80;;;;;;;;;;5071398;28;20095;-77
2022/12/20 13:14:24;;;;;;;3.90;2.70;;;;;;;;;;5071379;28;20380;-78
2022/12/20 13:16:51;;;;;;;5.72;3.15;;;;;;;;;;5067281;28;20020;-78
2022/12/20 13:19:33;;;;;;;5.95;2.88;;;;;;;;;;5072049;28;20026;-78
2022/12/20 13:22:05;;;;;;;5.15;3.15;;;;;;;;;;5070303;28;20024;-78
2022/12/20 13:24:55;;;;;;;6.05;3.25;;;;;;;;;;5072013;28;20027;-78
2022/12/20 13:27:32;;;;;;;5.35;2.83;;;;;;;;;;5063583;28;20036;-78
2022/12/20 13:30:09;;;;;;;5.22;2.55;;;;;;;;;;5061425;28;20036;-78
2022/12/20 13:32:46;;;;;;;5.13;2.65;;;;;;;;;;5061230;28;20025;-78
2022/12/20 13:35:24;;;;;;;5.05;2.70;;;;;;;;;;5071016;28;20492;-78
2022/12/20 13:38:04;;;;;;;4.43;2.70;;;;;;;;;;5064876;28;20464;-78
2022/12/20 13:40:41;;;;;;;4.97;2.53;;;;;;;;;;5063534;28;20039;-78
2022/12/20 13:43:22;;;;;;;4.15;2.70;;;;;;;;;;5068432;28;20436;-78
2022/12/20 13:45:53;;;;;;;5.97;2.88;;;;;;;;;;5067577;28;20111;-77
2022/12/20 13:48:24;;;;;;;4.20;2.40;;;;;;;;;;5067211;28;20032;-78
2022/12/20 13:50:54;;;;;;;6.55;2.72;;;;;;;;;;5072070;28;20546;-78
2022/12/20 13:53:22;;;;;;;4.43;2.78;;;;;;;;;;5063735;28;20027;-78
2022/12/20 13:55:49;;;;;;;3.92;2.63;;;;;;;;;;5064027;28;20815;-78
2022/12/20 13:58:35;;;;;;;4.35;3.00;;;;;;;;;;5043145;28;20095;-78
2022/12/20 14:01:06;;;;;;;4.63;2.78;;;;;;;;;;5061681;28;20056;-78
2022/12/20 14:03:39;;;;;;;5.50;3.67;;;;;;;;;;5062767;28;20194;-77
2022/12/20 14:06:08;;;;;;;;;;;;;;;;;;5061478;28;20067;-78
2022/12/20 14:08:39;;;;;;;5.32;3.28;;;;;;;;;;5057636;28;19940;-78
2022/12/20 14:11:14;;;;;;;5.57;2.90;;;;;;;;;;5050668;28;20032;-78
2022/12/20 14:13:40;;;;;;;6.18;3.28;;;;;;;;;;5056338;28;20033;-78
2022/12/20 14:16:16;;;;;;;5.95;3.17;;;;;;;;;;5056305;28;20085;-78
2022/12/20 14:18:50;;;;;;;6.03;3.15;;;;;;;;;;5055079;28;20032;-78
2022/12/20 14:21:17;;;;;;;5.20;3.20;;;;;;;;;;5055807;28;20127;-78
2022/12/20 14:23:47;;;;;;;4.32;2.55;;;;;;;;;;5048674;28;20039;-77
2022/12/20 14:26:15;;;;;;;5.22;3.10;;;;;;;;;;5055996;28;20044;-78
2022/12/20 14:28:45;;;;;;;4.72;3.13;;;;;;;;;;5057016;28;20155;-78
2022/12/20 14:31:32;;;;;;;4.80;3.13;;;;;;;;;;5056104;28;20578;-78
2022/12/20 14:34:09;;;;;;;5.78;3.60;;;;;;;;;;5055082;28;20036;-78
2022/12/20 14:36:41;;;;;;;4.80;3.35;;;;;;;;;;5052571;28;20552;-77
2022/12/20 14:39:52;;;;;;;5.22;3.42;;;;;;;;;;5059347;28;20083;-78
2022/12/20 14:42:19;;;;;;;6.00;3.05;;;;;;;;;;5042079;28;20528;-78
2022/12/20 14:44:46;;;;;;;4.80;3.05;;;;;;;;;;5059088;28;20647;-78
2022/12/20 14:47:24;;;;;;;5.20;2.72;;;;;;;;;;5061116;28;20287;-78
2022/12/20 14:50:01;;;;;;;3.83;2.72;;;;;;;;;;5058919;28;20040;-78
2022/12/20 14:52:37;;;;;;;4.50;3.00;;;;;;;;;;5050164;28;20032;-78
2022/12/20 14:55:15;;;;;;;4.25;2.75;;;;;;;;;;5051979;28;20507;-78
2022/12/20 14:57:49;;;;;;;7.03;4.00;;;;;;;;;;5057305;28;20024;-78
2022/12/20 15:00:17;;;;;;;5.10;3.20;;;;;;;;;;5060438;28;20055;-78
2022/12/20 15:02:51;;;;;;;5.53;3.33;;;;;;;;;;5058057;28;20368;-78
2022/12/20 15:05:34;;;;;;;5.68;3.90;;;;;;;;;;5054640;28;20600;-78
2022/12/20 15:08:12;;;;;;;5.88;4.03;;;;;;;;;;5054700;28;20396;-78
2022/12/20 15:10:41;;;;;;;5.00;3.22;;;;;;;;;;5049858;28;20059;-78
2022/12/20 15:13:12;;;;;;;6.50;3.53;;;;;;;;;;5052281;28;20253;-78